地図

経路データ

SID SEASON NUMBER BASIN SUBBASIN NAME ISO_TIME NATURE LAT LON WMO_WIND WMO_PRES WMO_AGENCY TRACK_TYPE DIST2LAND LANDFALL IFLAG USA_AGENCY USA_ATCF_ID USA_LAT USA_LON USA_RECORD USA_STATUS USA_WIND USA_PRES USA_SSHS USA_R34_NE USA_R34_SE USA_R34_SW USA_R34_NW USA_R50_NE USA_R50_SE USA_R50_SW USA_R50_NW USA_R64_NE USA_R64_SE USA_R64_SW USA_R64_NW USA_POCI USA_ROCI USA_RMW USA_EYE TOKYO_LAT TOKYO_LON TOKYO_GRADE TOKYO_WIND TOKYO_PRES TOKYO_R50_DIR TOKYO_R50_LONG TOKYO_R50_SHORT TOKYO_R30_DIR TOKYO_R30_LONG TOKYO_R30_SHORT TOKYO_LAND CMA_LAT CMA_LON CMA_CAT CMA_WIND CMA_PRES HKO_LAT HKO_LON HKO_CAT HKO_WIND HKO_PRES NEWDELHI_LAT NEWDELHI_LON NEWDELHI_GRADE NEWDELHI_WIND NEWDELHI_PRES NEWDELHI_CI NEWDELHI_DP NEWDELHI_POCI REUNION_LAT REUNION_LON REUNION_TYPE REUNION_WIND REUNION_PRES REUNION_TNUM REUNION_CI REUNION_RMW REUNION_R34_NE REUNION_R34_SE REUNION_R34_SW REUNION_R34_NW REUNION_R50_NE REUNION_R50_SE REUNION_R50_SW REUNION_R50_NW REUNION_R64_NE REUNION_R64_SE REUNION_R64_SW REUNION_R64_NW BOM_LAT BOM_LON BOM_TYPE BOM_WIND BOM_PRES BOM_TNUM BOM_CI BOM_RMW BOM_R34_NE BOM_R34_SE BOM_R34_SW BOM_R34_NW BOM_R50_NE BOM_R50_SE BOM_R50_SW BOM_R50_NW BOM_R64_NE BOM_R64_SE BOM_R64_SW BOM_R64_NW BOM_ROCI BOM_POCI BOM_EYE BOM_POS_METHOD BOM_PRES_METHOD NADI_LAT NADI_LON NADI_CAT NADI_WIND NADI_PRES WELLINGTON_LAT WELLINGTON_LON WELLINGTON_WIND WELLINGTON_PRES DS824_LAT DS824_LON DS824_STAGE DS824_WIND DS824_PRES TD9636_LAT TD9636_LON TD9636_STAGE TD9636_WIND TD9636_PRES TD9635_LAT TD9635_LON TD9635_WIND TD9635_PRES TD9635_ROCI NEUMANN_LAT NEUMANN_LON NEUMANN_CLASS NEUMANN_WIND NEUMANN_PRES MLC_LAT MLC_LON MLC_CLASS MLC_WIND MLC_PRES USA_GUST BOM_GUST BOM_GUST_PER REUNION_GUST REUNION_GUST_PER USA_SEAHGT USA_SEARAD_NE USA_SEARAD_SE USA_SEARAD_SW USA_SEARAD_NW STORM_SPEED STORM_DIR
1911328S15066 1912 71 SI MM NOT_NAMED 1911-11-24 06:00:00 NR -15.0000 66.3000 reunion main 1075 1060 _____O________ -1 -15.0000 66.3000 99 9.90000 2 236
1911328S15066 1912 71 SI MM NOT_NAMED 1911-11-24 09:00:00 NR -15.0544 66.2213 main 1060 1051 _____P________ -1 -15.0544 66.2213 99 2 234
1911328S15066 1912 71 SI MM NOT_NAMED 1911-11-24 12:00:00 NR -15.1108 66.1405 main 1051 1045 _____P________ -1 -15.1108 66.1405 99 2 234
1911328S15066 1912 71 SI MM NOT_NAMED 1911-11-24 15:00:00 NR -15.1711 66.0556 main 1045 1045 _____P________ -1 -15.1711 66.0556 99 0 0
1911328S15066 1912 71 SI MM NOT_NAMED 1911-11-24 18:00:00 NR -15.1098 66.1118 main 1051 1051 _____P____O___ -1 -15.2373 65.9647 99 -14.6000 66.7000 2 0 341
1911328S15066 1912 71 SI MM NOT_NAMED 1911-11-24 21:00:00 NR -15.1337 66.0539 main 1051 1027 _____P____P___ -1 -15.3113 65.8657 99 -14.7784 66.4301 2 2 242
1911328S15066 1912 71 SI MM NOT_NAMED 1911-11-25 00:00:00 TS -15.2183 65.9038 main 1027 1003 _____P___OP___ -1 -15.3951 65.7567 99 -15.3000 65.7000 TC 35 -14.9554 66.1680 2 4 238
1911328S15066 1912 71 SI MM NOT_NAMED 1911-11-25 03:00:00 TS -15.3361 65.7204 main 1003 972 _____P___PP___ -1 -15.4907 65.6354 99 -15.4401 65.4876 TC 35 -15.1296 65.9219 2 5 234
1911328S15066 1912 71 SI MM NOT_NAMED 1911-11-25 06:00:00 TS -15.4909 65.5182 reunion main 972 942 _____O___OO___ -1 -15.6000 65.5000 99 9.90000 -15.6000 65.3000 TC 35 -15.3000 65.7000 2 5 229
1911328S15066 1912 71 SI MM NOT_NAMED 1911-11-25 09:00:00 TS -15.6612 65.3355 main 942 927 _____P___PP___ -1 -15.7243 65.3492 99 -15.7925 65.1499 TC 35 -15.4667 65.5072 2 5 224
1911328S15066 1912 71 SI MM NOT_NAMED 1911-11-25 12:00:00 TS -15.8325 65.1733 main 927 897 _____P___OP___ -1 -15.8627 65.1852 99 -16.0000 65.0000 TC 35 -15.6348 65.3346 2 5 224
1911328S15066 1912 71 SI MM NOT_NAMED 1911-11-25 15:00:00 TS -16.0055 64.9961 main 897 867 _____P___PP___ -1 -16.0136 65.0112 99 -16.1925 64.8075 TC 35 -15.8105 65.1697 2 5 224
1911328S15066 1912 71 SI MM NOT_NAMED 1911-11-25 18:00:00 TS -16.1918 64.8101 main 867 837 _____P___OO___ -1 -16.1753 64.8302 99 -16.4000 64.6000 TC 35 -16.0000 65.0000 2 5 223
1911328S15066 1912 71 SI MM NOT_NAMED 1911-11-25 21:00:00 TS -16.3971 64.6162 main 837 808 _____P___PP___ -1 -16.3464 64.6455 99 -16.6425 64.4000 TC 35 -16.2025 64.8031 2 6 221
1911328S15066 1912 71 SI MM NOT_NAMED 1911-11-26 00:00:00 TS -16.6151 64.4200 main 808 778 _____P___OP___ -1 -16.5252 64.4601 99 -16.9000 64.2000 TC 35 -16.4200 64.5999 2 6 221
1911328S15066 1912 71 SI MM NOT_NAMED 1911-11-26 03:00:00 TS -16.8351 64.2221 main 778 743 _____P___PP___ -1 -16.7103 64.2772 99 -17.1425 63.9925 TC 35 -16.6525 64.3968 2 6 219
1911328S15066 1912 71 SI MM NOT_NAMED 1911-11-26 06:00:00 TS -17.0667 64.0333 reunion main 743 724 _____O___OO___ -1 -16.9000 64.1000 99 9.90000 -17.4000 63.8000 TC 35 -16.9000 64.2000 2 6 215
1911328S15066 1912 71 SI MM NOT_NAMED 1911-11-26 09:00:00 TS -17.3182 63.8643 main 724 690 _____P___PP___ -1 -17.0783 63.9367 99 -17.7075 63.6425 TC 35 -17.1687 64.0137 2 6 212
1911328S15066 1912 71 SI MM NOT_NAMED 1911-11-26 12:00:00 TS -17.5707 63.7040 main 690 670 _____P___OP___ -1 -17.2620 63.7771 99 -18.0000 63.5000 TC 35 -17.4499 63.8350 2 6 212
1911328S15066 1912 71 SI MM NOT_NAMED 1911-11-26 15:00:00 TS -17.7968 63.5450 main 661 641 _____P___PP___ -1 -17.4516 63.6214 99 -18.2075 63.3499 TC 35 -17.7312 63.6637 2 5 214
1911328S15066 1912 71 SI MM NOT_NAMED 1911-11-26 18:00:00 TS -18.0158 63.3898 main 641 613 _____P___OO___ -1 -17.6473 63.4694 99 -18.4000 63.2000 TC 35 -18.0000 63.5000 2 5 213
1911328S15066 1912 71 SI MM NOT_NAMED 1911-11-26 21:00:00 TS -18.2411 63.2418 main 613 591 _____P___PP___ -1 -17.8497 63.3213 99 -18.6425 63.0574 TC 35 -18.2312 63.3466 2 5 212
1911328S15066 1912 71 SI MM NOT_NAMED 1911-11-27 00:00:00 TS -18.4696 63.0922 main 591 563 _____P___OP___ -1 -18.0590 63.1771 99 -18.9000 62.9000 TC 35 -18.4499 63.1996 2 5 213
1911328S15066 1912 71 SI MM NOT_NAMED 1911-11-27 03:00:00 TS -18.6956 62.9298 main 563 546 _____P___PP___ -1 -18.2756 63.0366 99 -19.1425 62.7000 TC 35 -18.6687 63.0528 2 6 214
1911328S15066 1912 71 SI MM NOT_NAMED 1911-11-27 06:00:00 TS -18.9333 62.7667 reunion main 546 517 _____O___OO___ -1 -18.5000 62.9000 99 9.90000 -19.4000 62.5000 TC 35 -18.9000 62.9000 2 6 211
1911328S15066 1912 71 SI MM NOT_NAMED 1911-11-27 09:00:00 TS -19.1955 62.6074 main 517 501 _____P___PP___ -1 -18.7103 62.7670 99 -19.7075 62.3350 TC 35 -19.1688 62.7201 2 6 209
1911328S15066 1912 71 SI MM NOT_NAMED 1911-11-27 12:00:00 TS -19.4588 62.4579 main 499 474 _____P___OP___ -1 -18.9264 62.6386 99 -20.0000 62.2000 TC 35 -19.4501 62.5352 2 6 208
1911328S15066 1912 71 SI MM NOT_NAMED 1911-11-27 15:00:00 TS -19.6967 62.3212 main 474 461 _____P___PP___ -1 -19.1512 62.5136 99 -20.2075 62.0924 TC 35 -19.7313 62.3577 2 5 208
1911328S15066 1912 71 SI MM NOT_NAMED 1911-11-27 18:00:00 TS -19.9291 62.1969 main 461 448 _____P___OO___ -1 -19.3874 62.3908 99 -20.4000 62.0000 TC 35 -20.0000 62.2000 2 5 206
1911328S15066 1912 71 SI MM NOT_NAMED 1911-11-27 21:00:00 TS -20.1704 62.0811 main 448 437 _____P___PP___ -1 -19.6376 62.2692 99 -20.6425 61.9000 TC 35 -20.2312 62.0741 2 5 203
1911328S15066 1912 71 SI MM NOT_NAMED 1911-11-28 00:00:00 TS -20.4182 61.9724 main 437 427 _____P___OP___ -1 -19.9046 62.1477 99 -20.9000 61.8000 TC 35 -20.4499 61.9696 2 5 202
1911328S15066 1912 71 SI MM NOT_NAMED 1911-11-28 03:00:00 TS -20.6674 61.8660 main 429 418 _____P___PP___ -1 -20.1911 62.0250 99 -21.1425 61.6925 TC 35 -20.6687 61.8804 2 6 201
1911328S15066 1912 71 SI MM NOT_NAMED 1911-11-28 06:00:00 TS -20.9333 61.7667 reunion main 421 413 _____O___OO___ -1 -20.5000 61.9000 99 9.90000 -21.4000 61.6000 TC 35 -20.9000 61.8000 2 6 198
1911328S15066 1912 71 SI MM NOT_NAMED 1911-11-28 09:00:00 TS -21.2464 61.6691 main 417 410 _____P___PP___ -1 -20.8785 61.7510 99 -21.7000 61.5425 TC 35 -21.1606 61.7137 2 7 196
1911328S15066 1912 71 SI MM NOT_NAMED 1911-11-28 12:00:00 TS -21.5735 61.5776 main 420 414 _____P___OP___ -1 -21.2854 61.5978 99 -22.0000 61.5000 TC 35 -21.4350 61.6349 2 7 195
1911328S15066 1912 71 SI MM NOT_NAMED 1911-11-28 15:00:00 TS -21.8916 61.4859 main 423 418 _____P___PP___ -1 -21.7078 61.4439 99 -22.2500 61.4500 TC 35 -21.7169 61.5637 2 6 196
1911328S15066 1912 71 SI MM NOT_NAMED 1911-11-28 18:00:00 TS -22.1847 61.3975 main 427 427 _____P___OO___ -1 -22.1328 61.2932 99 -22.5000 61.4000 TC 35 -22.0000 61.5000 2 6 195
1911328S15066 1912 71 SI MM NOT_NAMED 1911-11-28 21:00:00 TS -22.4882 61.3072 main 434 434 _____P___PP___ -1 -22.5474 61.1494 99 -22.7875 61.3501 TC 35 -22.2794 61.4435 2 7 197
1911328S15066 1912 71 SI MM NOT_NAMED 1911-11-29 00:00:00 TS -22.8150 61.1930 main 443 441 _____P___OP___ -1 -22.9388 61.0166 99 -23.1000 61.3000 TC 35 -22.5550 61.3926 2 7 200
1911328S15066 1912 71 SI MM NOT_NAMED 1911-11-29 03:00:00 NR -23.1386 61.0476 main 447 447 _____P____P___ -1 -23.2939 60.8987 99 TC -22.8281 61.3454 2 7 201
1911328S15066 1912 71 SI MM NOT_NAMED 1911-11-29 06:00:00 NR -23.5000 60.9000 reunion main 470 470 _____O____O___ -1 -23.6000 60.8000 99 9.90000 -23.1000 61.3000 2 8 203
1911328S15066 1912 71 SI MM NOT_NAMED 1911-11-29 09:00:00 NR -23.8476 60.7234 main 481 481 _____P________ -1 -23.8476 60.7234 99 2 6 201
1911328S15066 1912 71 SI MM NOT_NAMED 1911-11-29 12:00:00 NR -24.0412 60.6673 main 498 498 _____P________ -1 -24.0412 60.6673 99 2 4 194
1911328S15066 1912 71 SI MM NOT_NAMED 1911-11-29 15:00:00 NR -24.1884 60.6288 main 509 509 _____P________ -1 -24.1884 60.6288 99 2 3 193
1911328S15066 1912 71 SI MM NOT_NAMED 1911-11-29 18:00:00 NR -24.2970 60.6052 main 518 518 _____P________ -1 -24.2970 60.6052 99 2 191
1911328S15066 1912 71 SI MM NOT_NAMED 1911-11-29 21:00:00 NR -24.3747 60.5935 main 528 528 _____P________ -1 -24.3747 60.5935 99 1 0
1911328S15066 1912 71 SI MM NOT_NAMED 1911-11-30 00:00:00 NR -24.4293 60.5907 main 528 528 _____P________ -1 -24.4293 60.5907 99 1 165
1911328S15066 1912 71 SI MM NOT_NAMED 1911-11-30 03:00:00 NR -24.4685 60.5938 main 537 537 _____P________ -1 -24.4685 60.5938 99 1 0
1911328S15066 1912 71 SI MM NOT_NAMED 1911-11-30 06:00:00 NR -24.5000 60.6000 reunion main 537 _____O________ -1 -24.5000 60.6000 99 9.90000 1 143

IBTrACS Databaseについて

本データベースは、米国NOAAが公開する1842年以降の世界の熱帯低気圧のベストトラックデータアーカイブInternational Best Track Archive for Climate Stewardship (IBTrACS)を、ウェブで閲覧しやすい形式に変換したものです。

最終更新日:2021-10-08